sensor_id;sensor_type;location;lat;lon;timestamp;temperature;humidity
25825;DHT22;13658;44.534;18.694;2023-07-13T00:00:35;23.00;99.90
25825;DHT22;13658;44.534;18.694;2023-07-13T00:03:03;23.00;99.90
25825;DHT22;13658;44.534;18.694;2023-07-13T00:05:29;22.80;99.90
25825;DHT22;13658;44.534;18.694;2023-07-13T00:07:54;22.70;99.90
25825;DHT22;13658;44.534;18.694;2023-07-13T00:10:21;22.70;99.90
25825;DHT22;13658;44.534;18.694;2023-07-13T00:12:48;22.70;99.90
25825;DHT22;13658;44.534;18.694;2023-07-13T00:15:20;22.70;99.90
25825;DHT22;13658;44.534;18.694;2023-07-13T00:17:53;22.60;99.90
25825;DHT22;13658;44.534;18.694;2023-07-13T00:20:21;22.50;99.90
25825;DHT22;13658;44.534;18.694;2023-07-13T00:22:48;22.50;99.90
25825;DHT22;13658;44.534;18.694;2023-07-13T00:25:14;22.50;99.90
25825;DHT22;13658;44.534;18.694;2023-07-13T00:27:42;22.40;99.90
25825;DHT22;13658;44.534;18.694;2023-07-13T00:30:09;22.30;99.90
25825;DHT22;13658;44.534;18.694;2023-07-13T00:32:36;22.40;99.90
25825;DHT22;13658;44.534;18.694;2023-07-13T00:35:02;22.30;99.90
25825;DHT22;13658;44.534;18.694;2023-07-13T00:37:30;22.20;99.90
25825;DHT22;13658;44.534;18.694;2023-07-13T00:39:57;22.10;99.90
25825;DHT22;13658;44.534;18.694;2023-07-13T00:42:23;22.10;99.90
25825;DHT22;13658;44.534;18.694;2023-07-13T00:47:43;22.00;99.90
25825;DHT22;13658;44.534;18.694;2023-07-13T00:50:13;22.00;99.90
25825;DHT22;13658;44.534;18.694;2023-07-13T00:52:45;22.00;99.90
25825;DHT22;13658;44.534;18.694;2023-07-13T00:55:13;22.00;99.90
25825;DHT22;13658;44.534;18.694;2023-07-13T00:57:40;21.90;99.90
25825;DHT22;13658;44.534;18.694;2023-07-13T01:00:08;21.80;99.90
25825;DHT22;13658;44.534;18.694;2023-07-13T01:02:39;21.90;99.90
25825;DHT22;13658;44.534;18.694;2023-07-13T01:05:10;21.80;99.90
25825;DHT22;13658;44.534;18.694;2023-07-13T01:07:37;21.80;99.90
25825;DHT22;13658;44.534;18.694;2023-07-13T01:10:04;21.70;99.90
25825;DHT22;13658;44.534;18.694;2023-07-13T01:12:30;21.80;99.90
25825;DHT22;13658;44.534;18.694;2023-07-13T01:15:00;21.80;99.90
25825;DHT22;13658;44.534;18.694;2023-07-13T01:17:27;21.80;99.90
25825;DHT22;13658;44.534;18.694;2023-07-13T01:19:54;21.70;99.90
25825;DHT22;13658;44.534;18.694;2023-07-13T01:22:22;21.60;99.90
25825;DHT22;13658;44.534;18.694;2023-07-13T01:25:01;21.50;99.90
25825;DHT22;13658;44.534;18.694;2023-07-13T01:27:28;21.50;99.90
25825;DHT22;13658;44.534;18.694;2023-07-13T01:29:54;21.40;99.90
25825;DHT22;13658;44.534;18.694;2023-07-13T01:32:27;21.40;99.90
25825;DHT22;13658;44.534;18.694;2023-07-13T01:34:54;21.30;99.90
25825;DHT22;13658;44.534;18.694;2023-07-13T01:37:22;21.20;99.90
25825;DHT22;13658;44.534;18.694;2023-07-13T01:39:51;21.20;99.90
25825;DHT22;13658;44.534;18.694;2023-07-13T01:42:17;21.30;99.90
25825;DHT22;13658;44.534;18.694;2023-07-13T01:44:43;21.30;99.90
25825;DHT22;13658;44.534;18.694;2023-07-13T01:47:10;21.20;99.90
25825;DHT22;13658;44.534;18.694;2023-07-13T01:49:36;21.20;99.90
25825;DHT22;13658;44.534;18.694;2023-07-13T01:52:03;21.20;99.90
25825;DHT22;13658;44.534;18.694;2023-07-13T01:54:30;21.10;99.90
25825;DHT22;13658;44.534;18.694;2023-07-13T01:56:56;21.10;99.90
25825;DHT22;13658;44.534;18.694;2023-07-13T01:59:23;21.10;99.90
25825;DHT22;13658;44.534;18.694;2023-07-13T02:01:49;21.10;99.90
25825;DHT22;13658;44.534;18.694;2023-07-13T02:04:15;21.00;99.90
25825;DHT22;13658;44.534;18.694;2023-07-13T02:06:41;20.90;99.90
25825;DHT22;13658;44.534;18.694;2023-07-13T02:09:07;20.80;99.90
25825;DHT22;13658;44.534;18.694;2023-07-13T02:11:33;20.80;99.90
25825;DHT22;13658;44.534;18.694;2023-07-13T02:14:03;20.70;99.90
25825;DHT22;13658;44.534;18.694;2023-07-13T02:16:30;20.70;99.90
25825;DHT22;13658;44.534;18.694;2023-07-13T02:18:56;20.60;99.90
25825;DHT22;13658;44.534;18.694;2023-07-13T02:21:23;20.60;99.90
25825;DHT22;13658;44.534;18.694;2023-07-13T02:23:51;20.60;99.90
25825;DHT22;13658;44.534;18.694;2023-07-13T02:26:18;20.60;99.90
25825;DHT22;13658;44.534;18.694;2023-07-13T02:28:44;20.60;99.90
25825;DHT22;13658;44.534;18.694;2023-07-13T02:31:14;20.60;99.90
25825;DHT22;13658;44.534;18.694;2023-07-13T02:33:40;20.50;99.90
25825;DHT22;13658;44.534;18.694;2023-07-13T02:36:06;20.40;99.90
25825;DHT22;13658;44.534;18.694;2023-07-13T02:38:34;20.40;99.90
25825;DHT22;13658;44.534;18.694;2023-07-13T02:41:03;20.30;99.90
25825;DHT22;13658;44.534;18.694;2023-07-13T02:43:29;20.30;99.90
25825;DHT22;13658;44.534;18.694;2023-07-13T02:45:55;20.30;99.90
25825;DHT22;13658;44.534;18.694;2023-07-13T02:48:21;20.30;99.90
25825;DHT22;13658;44.534;18.694;2023-07-13T02:50:47;20.30;99.90
25825;DHT22;13658;44.534;18.694;2023-07-13T02:53:13;20.30;99.90
25825;DHT22;13658;44.534;18.694;2023-07-13T02:55:39;20.10;99.90
25825;DHT22;13658;44.534;18.694;2023-07-13T02:58:07;20.00;99.90
25825;DHT22;13658;44.534;18.694;2023-07-13T03:00:33;19.90;99.90
25825;DHT22;13658;44.534;18.694;2023-07-13T03:02:59;19.80;99.90
25825;DHT22;13658;44.534;18.694;2023-07-13T03:05:26;19.80;99.90
25825;DHT22;13658;44.534;18.694;2023-07-13T03:07:52;19.80;99.90
25825;DHT22;13658;44.534;18.694;2023-07-13T03:10:21;19.90;99.90
25825;DHT22;13658;44.534;18.694;2023-07-13T03:12:49;19.90;99.90
25825;DHT22;13658;44.534;18.694;2023-07-13T03:15:24;19.90;99.90
25825;DHT22;13658;44.534;18.694;2023-07-13T03:17:52;19.90;99.90
25825;DHT22;13658;44.534;18.694;2023-07-13T03:20:18;20.00;99.90
25825;DHT22;13658;44.534;18.694;2023-07-13T03:22:45;20.00;99.90
25825;DHT22;13658;44.534;18.694;2023-07-13T03:25:12;20.00;99.90
25825;DHT22;13658;44.534;18.694;2023-07-13T03:27:38;20.00;99.90
25825;DHT22;13658;44.534;18.694;2023-07-13T03:30:07;19.90;99.90
25825;DHT22;13658;44.534;18.694;2023-07-13T03:32:34;20.00;99.90
25825;DHT22;13658;44.534;18.694;2023-07-13T03:35:00;20.00;99.90
25825;DHT22;13658;44.534;18.694;2023-07-13T03:37:32;20.00;99.90
25825;DHT22;13658;44.534;18.694;2023-07-13T03:39:57;20.00;99.90
25825;DHT22;13658;44.534;18.694;2023-07-13T03:42:25;20.00;99.90
25825;DHT22;13658;44.534;18.694;2023-07-13T03:44:51;20.00;99.90
25825;DHT22;13658;44.534;18.694;2023-07-13T03:47:19;20.00;99.90
25825;DHT22;13658;44.534;18.694;2023-07-13T03:49:45;20.00;99.90
25825;DHT22;13658;44.534;18.694;2023-07-13T03:52:12;20.10;99.90
25825;DHT22;13658;44.534;18.694;2023-07-13T03:54:38;20.10;99.90
25825;DHT22;13658;44.534;18.694;2023-07-13T03:57:06;20.10;99.90
25825;DHT22;13658;44.534;18.694;2023-07-13T03:59:34;20.10;99.90
25825;DHT22;13658;44.534;18.694;2023-07-13T04:02:01;20.10;99.90
25825;DHT22;13658;44.534;18.694;2023-07-13T04:04:27;20.00;99.90
25825;DHT22;13658;44.534;18.694;2023-07-13T04:06:53;20.00;99.90
25825;DHT22;13658;44.534;18.694;2023-07-13T04:09:19;19.90;99.90
25825;DHT22;13658;44.534;18.694;2023-07-13T04:11:46;19.90;99.90
25825;DHT22;13658;44.534;18.694;2023-07-13T04:14:12;19.90;99.90
25825;DHT22;13658;44.534;18.694;2023-07-13T04:16:38;20.10;99.90
25825;DHT22;13658;44.534;18.694;2023-07-13T04:19:04;20.10;99.90
25825;DHT22;13658;44.534;18.694;2023-07-13T04:21:31;20.20;99.90
25825;DHT22;13658;44.534;18.694;2023-07-13T04:23:58;20.30;99.90
25825;DHT22;13658;44.534;18.694;2023-07-13T04:26:24;20.40;99.90
25825;DHT22;13658;44.534;18.694;2023-07-13T04:28:51;20.50;99.90
25825;DHT22;13658;44.534;18.694;2023-07-13T04:31:17;20.60;99.90
25825;DHT22;13658;44.534;18.694;2023-07-13T04:33:43;20.70;99.90
25825;DHT22;13658;44.534;18.694;2023-07-13T04:36:09;20.80;99.90
25825;DHT22;13658;44.534;18.694;2023-07-13T04:38:36;20.90;99.90
25825;DHT22;13658;44.534;18.694;2023-07-13T04:41:06;21.10;99.90
25825;DHT22;13658;44.534;18.694;2023-07-13T04:43:35;21.20;99.90
25825;DHT22;13658;44.534;18.694;2023-07-13T04:46:09;21.30;99.90
25825;DHT22;13658;44.534;18.694;2023-07-13T04:48:36;21.50;99.90
25825;DHT22;13658;44.534;18.694;2023-07-13T04:51:03;21.40;99.90
25825;DHT22;13658;44.534;18.694;2023-07-13T04:53:29;21.40;99.90
25825;DHT22;13658;44.534;18.694;2023-07-13T04:55:56;21.40;99.90
25825;DHT22;13658;44.534;18.694;2023-07-13T04:58:23;21.50;99.90
25825;DHT22;13658;44.534;18.694;2023-07-13T05:00:49;21.80;99.90
25825;DHT22;13658;44.534;18.694;2023-07-13T05:03:15;21.90;99.90
25825;DHT22;13658;44.534;18.694;2023-07-13T05:05:41;22.10;99.90
25825;DHT22;13658;44.534;18.694;2023-07-13T05:08:07;22.30;99.90
25825;DHT22;13658;44.534;18.694;2023-07-13T05:10:34;22.60;99.90
25825;DHT22;13658;44.534;18.694;2023-07-13T05:13:00;22.90;99.90
25825;DHT22;13658;44.534;18.694;2023-07-13T05:15:27;23.10;99.90
25825;DHT22;13658;44.534;18.694;2023-07-13T05:17:53;23.20;99.90
25825;DHT22;13658;44.534;18.694;2023-07-13T05:20:19;23.40;99.90
25825;DHT22;13658;44.534;18.694;2023-07-13T05:22:45;23.80;99.90
25825;DHT22;13658;44.534;18.694;2023-07-13T05:25:16;23.90;99.90
25825;DHT22;13658;44.534;18.694;2023-07-13T05:27:42;23.90;99.90
25825;DHT22;13658;44.534;18.694;2023-07-13T05:30:09;24.10;99.90
25825;DHT22;13658;44.534;18.694;2023-07-13T05:32:37;24.50;99.90
25825;DHT22;13658;44.534;18.694;2023-07-13T05:35:04;24.60;99.90
25825;DHT22;13658;44.534;18.694;2023-07-13T05:37:30;24.90;99.90
25825;DHT22;13658;44.534;18.694;2023-07-13T05:40:35;25.10;99.90
25825;DHT22;13658;44.534;18.694;2023-07-13T05:43:01;25.30;99.90
25825;DHT22;13658;44.534;18.694;2023-07-13T05:45:27;25.80;99.90
25825;DHT22;13658;44.534;18.694;2023-07-13T05:47:53;26.00;99.90
25825;DHT22;13658;44.534;18.694;2023-07-13T05:50:19;26.30;99.90
25825;DHT22;13658;44.534;18.694;2023-07-13T05:52:45;26.60;99.90
25825;DHT22;13658;44.534;18.694;2023-07-13T05:55:11;26.60;99.90
25825;DHT22;13658;44.534;18.694;2023-07-13T05:57:37;26.80;99.90
25825;DHT22;13658;44.534;18.694;2023-07-13T06:00:03;27.10;99.90
25825;DHT22;13658;44.534;18.694;2023-07-13T06:02:37;27.50;99.90
25825;DHT22;13658;44.534;18.694;2023-07-13T06:05:04;27.70;99.90
25825;DHT22;13658;44.534;18.694;2023-07-13T06:07:30;28.00;99.90
25825;DHT22;13658;44.534;18.694;2023-07-13T06:09:56;28.20;99.90
25825;DHT22;13658;44.534;18.694;2023-07-13T06:12:22;28.60;99.90
25825;DHT22;13658;44.534;18.694;2023-07-13T06:14:48;28.60;99.90
25825;DHT22;13658;44.534;18.694;2023-07-13T06:17:14;28.90;99.90
25825;DHT22;13658;44.534;18.694;2023-07-13T06:19:40;28.70;99.90
25825;DHT22;13658;44.534;18.694;2023-07-13T06:22:06;28.50;99.90
25825;DHT22;13658;44.534;18.694;2023-07-13T06:24:32;28.20;99.90
25825;DHT22;13658;44.534;18.694;2023-07-13T06:26:58;28.20;99.90
25825;DHT22;13658;44.534;18.694;2023-07-13T06:29:24;28.40;99.90
25825;DHT22;13658;44.534;18.694;2023-07-13T06:31:50;28.80;99.90
25825;DHT22;13658;44.534;18.694;2023-07-13T06:34:16;29.30;99.90
25825;DHT22;13658;44.534;18.694;2023-07-13T06:36:42;29.40;99.90
25825;DHT22;13658;44.534;18.694;2023-07-13T06:39:08;29.80;99.90
25825;DHT22;13658;44.534;18.694;2023-07-13T06:41:35;30.20;99.90
25825;DHT22;13658;44.534;18.694;2023-07-13T06:44:02;30.60;99.90
25825;DHT22;13658;44.534;18.694;2023-07-13T06:46:29;30.50;99.90
25825;DHT22;13658;44.534;18.694;2023-07-13T06:48:56;30.80;99.90
25825;DHT22;13658;44.534;18.694;2023-07-13T06:51:22;31.20;99.90
25825;DHT22;13658;44.534;18.694;2023-07-13T06:53:48;31.40;99.90
25825;DHT22;13658;44.534;18.694;2023-07-13T06:56:15;31.70;99.90
25825;DHT22;13658;44.534;18.694;2023-07-13T06:58:41;32.10;99.90
25825;DHT22;13658;44.534;18.694;2023-07-13T07:01:09;32.50;99.90
25825;DHT22;13658;44.534;18.694;2023-07-13T07:03:34;32.90;99.90
25825;DHT22;13658;44.534;18.694;2023-07-13T07:06:12;33.00;99.90
25825;DHT22;13658;44.534;18.694;2023-07-13T07:08:38;33.20;99.90
25825;DHT22;13658;44.534;18.694;2023-07-13T07:11:05;33.80;99.90
25825;DHT22;13658;44.534;18.694;2023-07-13T07:13:31;34.30;99.90
25825;DHT22;13658;44.534;18.694;2023-07-13T07:15:57;34.50;99.90
25825;DHT22;13658;44.534;18.694;2023-07-13T07:18:25;34.40;99.90
25825;DHT22;13658;44.534;18.694;2023-07-13T07:20:51;35.10;99.90
25825;DHT22;13658;44.534;18.694;2023-07-13T07:23:17;35.50;99.90
25825;DHT22;13658;44.534;18.694;2023-07-13T07:25:44;35.80;99.90
25825;DHT22;13658;44.534;18.694;2023-07-13T07:28:12;36.00;99.90
25825;DHT22;13658;44.534;18.694;2023-07-13T07:30:42;36.80;99.90
25825;DHT22;13658;44.534;18.694;2023-07-13T07:33:09;36.80;99.90
25825;DHT22;13658;44.534;18.694;2023-07-13T07:35:35;36.90;99.90
25825;DHT22;13658;44.534;18.694;2023-07-13T07:38:01;36.90;99.90
25825;DHT22;13658;44.534;18.694;2023-07-13T07:40:26;36.90;99.90
25825;DHT22;13658;44.534;18.694;2023-07-13T07:42:52;36.70;99.90
25825;DHT22;13658;44.534;18.694;2023-07-13T07:45:19;37.20;99.90
25825;DHT22;13658;44.534;18.694;2023-07-13T07:47:45;37.10;99.90
25825;DHT22;13658;44.534;18.694;2023-07-13T07:50:12;37.60;99.90
25825;DHT22;13658;44.534;18.694;2023-07-13T07:52:38;37.70;99.90
25825;DHT22;13658;44.534;18.694;2023-07-13T07:55:05;37.80;99.90
25825;DHT22;13658;44.534;18.694;2023-07-13T07:57:31;38.00;99.90
25825;DHT22;13658;44.534;18.694;2023-07-13T07:59:57;38.30;99.90
25825;DHT22;13658;44.534;18.694;2023-07-13T08:02:25;37.60;99.90
25825;DHT22;13658;44.534;18.694;2023-07-13T08:04:51;38.20;99.90
25825;DHT22;13658;44.534;18.694;2023-07-13T08:07:17;38.50;99.90
25825;DHT22;13658;44.534;18.694;2023-07-13T08:09:43;38.40;99.90
25825;DHT22;13658;44.534;18.694;2023-07-13T08:12:09;38.40;99.90
25825;DHT22;13658;44.534;18.694;2023-07-13T08:14:35;39.00;99.90
25825;DHT22;13658;44.534;18.694;2023-07-13T08:17:01;38.50;99.90
25825;DHT22;13658;44.534;18.694;2023-07-13T08:19:27;38.90;99.90
25825;DHT22;13658;44.534;18.694;2023-07-13T08:21:53;38.60;99.90
25825;DHT22;13658;44.534;18.694;2023-07-13T08:24:22;38.40;99.90
25825;DHT22;13658;44.534;18.694;2023-07-13T08:26:48;39.10;99.90
25825;DHT22;13658;44.534;18.694;2023-07-13T08:29:14;39.40;99.90
25825;DHT22;13658;44.534;18.694;2023-07-13T08:31:43;40.20;99.90
25825;DHT22;13658;44.534;18.694;2023-07-13T08:34:09;39.90;99.90
25825;DHT22;13658;44.534;18.694;2023-07-13T08:36:36;39.80;99.90
25825;DHT22;13658;44.534;18.694;2023-07-13T08:39:02;39.50;99.90
25825;DHT22;13658;44.534;18.694;2023-07-13T08:41:28;39.20;99.90
25825;DHT22;13658;44.534;18.694;2023-07-13T08:43:58;39.70;99.90
25825;DHT22;13658;44.534;18.694;2023-07-13T08:49:03;40.60;99.90
25825;DHT22;13658;44.534;18.694;2023-07-13T08:51:53;40.30;99.90
25825;DHT22;13658;44.534;18.694;2023-07-13T08:54:42;40.70;99.90
25825;DHT22;13658;44.534;18.694;2023-07-13T08:57:15;40.40;99.90
25825;DHT22;13658;44.534;18.694;2023-07-13T08:59:43;40.10;99.90
25825;DHT22;13658;44.534;18.694;2023-07-13T09:04:44;40.20;99.90
25825;DHT22;13658;44.534;18.694;2023-07-13T09:07:41;40.00;99.90
25825;DHT22;13658;44.534;18.694;2023-07-13T09:10:23;39.80;99.90
25825;DHT22;13658;44.534;18.694;2023-07-13T09:15:41;40.50;99.90
25825;DHT22;13658;44.534;18.694;2023-07-13T09:23:22;41.20;99.90
25825;DHT22;13658;44.534;18.694;2023-07-13T09:25:51;41.00;99.90
25825;DHT22;13658;44.534;18.694;2023-07-13T09:28:24;41.80;99.90
25825;DHT22;13658;44.534;18.694;2023-07-13T09:31:17;41.90;99.90
25825;DHT22;13658;44.534;18.694;2023-07-13T09:33:44;41.80;99.90
25825;DHT22;13658;44.534;18.694;2023-07-13T09:38:43;41.40;99.90
25825;DHT22;13658;44.534;18.694;2023-07-13T09:41:24;41.10;99.90
25825;DHT22;13658;44.534;18.694;2023-07-13T09:44:13;41.80;99.90
25825;DHT22;13658;44.534;18.694;2023-07-13T09:46:47;42.10;99.90
25825;DHT22;13658;44.534;18.694;2023-07-13T09:49:18;42.20;99.90
25825;DHT22;13658;44.534;18.694;2023-07-13T09:51:44;40.80;99.90
25825;DHT22;13658;44.534;18.694;2023-07-13T09:54:20;40.70;99.90
25825;DHT22;13658;44.534;18.694;2023-07-13T09:56:46;40.90;99.90
25825;DHT22;13658;44.534;18.694;2023-07-13T09:59:19;40.30;99.90
25825;DHT22;13658;44.534;18.694;2023-07-13T10:01:47;40.20;99.90
25825;DHT22;13658;44.534;18.694;2023-07-13T10:04:26;40.10;99.90
25825;DHT22;13658;44.534;18.694;2023-07-13T10:07:05;40.30;99.90
25825;DHT22;13658;44.534;18.694;2023-07-13T10:09:32;40.20;99.90
25825;DHT22;13658;44.534;18.694;2023-07-13T10:11:58;40.30;99.90
25825;DHT22;13658;44.534;18.694;2023-07-13T10:14:25;40.30;99.90
25825;DHT22;13658;44.534;18.694;2023-07-13T10:16:59;40.10;99.90
25825;DHT22;13658;44.534;18.694;2023-07-13T10:19:32;39.90;99.90
25825;DHT22;13658;44.534;18.694;2023-07-13T10:22:10;39.50;99.90
25825;DHT22;13658;44.534;18.694;2023-07-13T10:24:39;40.00;99.90
25825;DHT22;13658;44.534;18.694;2023-07-13T10:27:20;39.80;99.90
25825;DHT22;13658;44.534;18.694;2023-07-13T10:30:09;40.30;99.90
25825;DHT22;13658;44.534;18.694;2023-07-13T10:32:38;41.10;99.90
25825;DHT22;13658;44.534;18.694;2023-07-13T10:35:05;41.20;99.90
25825;DHT22;13658;44.534;18.694;2023-07-13T10:37:53;41.00;99.90
25825;DHT22;13658;44.534;18.694;2023-07-13T10:40:25;40.60;99.90
25825;DHT22;13658;44.534;18.694;2023-07-13T10:42:56;41.10;99.90
25825;DHT22;13658;44.534;18.694;2023-07-13T10:45:23;41.20;99.90
25825;DHT22;13658;44.534;18.694;2023-07-13T10:47:52;41.00;99.90
25825;DHT22;13658;44.534;18.694;2023-07-13T10:50:27;40.90;99.90
25825;DHT22;13658;44.534;18.694;2023-07-13T10:53:03;40.50;99.90
25825;DHT22;13658;44.534;18.694;2023-07-13T10:58:23;39.30;99.90
25825;DHT22;13658;44.534;18.694;2023-07-13T11:01:09;38.40;99.90
25825;DHT22;13658;44.534;18.694;2023-07-13T11:03:49;38.10;99.90
25825;DHT22;13658;44.534;18.694;2023-07-13T11:06:34;37.70;99.90
25825;DHT22;13658;44.534;18.694;2023-07-13T11:09:36;37.20;99.90
25825;DHT22;13658;44.534;18.694;2023-07-13T11:12:25;37.20;99.90
25825;DHT22;13658;44.534;18.694;2023-07-13T11:20:20;36.80;99.90
25825;DHT22;13658;44.534;18.694;2023-07-13T11:22:52;36.50;99.90
25825;DHT22;13658;44.534;18.694;2023-07-13T11:25:31;36.60;99.90
25825;DHT22;13658;44.534;18.694;2023-07-13T11:36:12;35.90;99.90
25825;DHT22;13658;44.534;18.694;2023-07-13T11:38:41;35.80;99.90
25825;DHT22;13658;44.534;18.694;2023-07-13T11:41:19;35.90;99.90
25825;DHT22;13658;44.534;18.694;2023-07-13T11:43:53;35.60;99.90
25825;DHT22;13658;44.534;18.694;2023-07-13T11:46:26;35.20;99.90
25825;DHT22;13658;44.534;18.694;2023-07-13T11:48:53;35.20;99.90
25825;DHT22;13658;44.534;18.694;2023-07-13T11:51:30;35.40;99.90
25825;DHT22;13658;44.534;18.694;2023-07-13T11:54:02;35.50;99.90
25825;DHT22;13658;44.534;18.694;2023-07-13T11:56:28;35.60;99.90
25825;DHT22;13658;44.534;18.694;2023-07-13T11:58:57;35.70;99.90
25825;DHT22;13658;44.534;18.694;2023-07-13T12:01:27;35.70;99.90
25825;DHT22;13658;44.534;18.694;2023-07-13T12:04:02;35.70;99.90
25825;DHT22;13658;44.534;18.694;2023-07-13T12:06:31;35.90;99.90
25825;DHT22;13658;44.534;18.694;2023-07-13T12:09:02;36.00;99.90
25825;DHT22;13658;44.534;18.694;2023-07-13T12:11:30;35.90;99.90
25825;DHT22;13658;44.534;18.694;2023-07-13T12:13:56;36.00;99.90
25825;DHT22;13658;44.534;18.694;2023-07-13T12:18:53;36.10;99.90
25825;DHT22;13658;44.534;18.694;2023-07-13T12:21:24;36.00;99.90
25825;DHT22;13658;44.534;18.694;2023-07-13T12:23:52;36.00;99.90
25825;DHT22;13658;44.534;18.694;2023-07-13T12:26:18;35.80;99.90
25825;DHT22;13658;44.534;18.694;2023-07-13T12:28:53;35.80;99.90
25825;DHT22;13658;44.534;18.694;2023-07-13T12:31:35;35.80;99.90
25825;DHT22;13658;44.534;18.694;2023-07-13T12:34:10;35.90;99.90
25825;DHT22;13658;44.534;18.694;2023-07-13T12:36:56;35.80;99.90
25825;DHT22;13658;44.534;18.694;2023-07-13T12:39:37;35.60;99.90
25825;DHT22;13658;44.534;18.694;2023-07-13T12:42:33;35.60;99.90
25825;DHT22;13658;44.534;18.694;2023-07-13T12:45:23;35.60;99.90
25825;DHT22;13658;44.534;18.694;2023-07-13T12:47:54;35.60;99.90
25825;DHT22;13658;44.534;18.694;2023-07-13T12:50:23;35.40;99.90
25825;DHT22;13658;44.534;18.694;2023-07-13T12:53:03;35.20;99.90
25825;DHT22;13658;44.534;18.694;2023-07-13T12:55:47;34.90;99.90
25825;DHT22;13658;44.534;18.694;2023-07-13T12:58:38;34.80;99.90
25825;DHT22;13658;44.534;18.694;2023-07-13T13:01:05;34.60;99.90
25825;DHT22;13658;44.534;18.694;2023-07-13T13:03:34;34.60;99.90
25825;DHT22;13658;44.534;18.694;2023-07-13T13:06:06;34.70;99.90
25825;DHT22;13658;44.534;18.694;2023-07-13T13:08:34;34.70;99.90
25825;DHT22;13658;44.534;18.694;2023-07-13T13:11:02;34.60;99.90
25825;DHT22;13658;44.534;18.694;2023-07-13T13:13:28;34.50;99.90
25825;DHT22;13658;44.534;18.694;2023-07-13T13:15:54;34.60;99.90
25825;DHT22;13658;44.534;18.694;2023-07-13T13:18:22;34.70;99.90
25825;DHT22;13658;44.534;18.694;2023-07-13T13:20:50;34.80;99.90
25825;DHT22;13658;44.534;18.694;2023-07-13T13:23:18;34.70;99.90
25825;DHT22;13658;44.534;18.694;2023-07-13T13:25:46;34.50;99.90
25825;DHT22;13658;44.534;18.694;2023-07-13T13:28:15;34.30;99.90
25825;DHT22;13658;44.534;18.694;2023-07-13T13:30:43;34.20;99.90
25825;DHT22;13658;44.534;18.694;2023-07-13T13:33:14;34.00;99.90
25825;DHT22;13658;44.534;18.694;2023-07-13T13:35:41;34.00;99.90
25825;DHT22;13658;44.534;18.694;2023-07-13T13:38:14;33.90;99.90
25825;DHT22;13658;44.534;18.694;2023-07-13T13:40:42;33.90;99.90
25825;DHT22;13658;44.534;18.694;2023-07-13T13:43:24;33.70;99.90
25825;DHT22;13658;44.534;18.694;2023-07-13T13:45:57;33.70;99.90
25825;DHT22;13658;44.534;18.694;2023-07-13T13:48:35;33.70;99.90
25825;DHT22;13658;44.534;18.694;2023-07-13T13:51:16;33.70;99.90
25825;DHT22;13658;44.534;18.694;2023-07-13T13:53:43;33.70;99.90
25825;DHT22;13658;44.534;18.694;2023-07-13T13:56:09;33.70;99.90
25825;DHT22;13658;44.534;18.694;2023-07-13T13:58:35;33.60;99.90
25825;DHT22;13658;44.534;18.694;2023-07-13T14:01:02;33.70;99.90
25825;DHT22;13658;44.534;18.694;2023-07-13T14:03:28;33.70;99.90
25825;DHT22;13658;44.534;18.694;2023-07-13T14:05:55;33.60;99.90
25825;DHT22;13658;44.534;18.694;2023-07-13T14:08:23;33.50;99.90
25825;DHT22;13658;44.534;18.694;2023-07-13T14:10:53;33.40;99.90
25825;DHT22;13658;44.534;18.694;2023-07-13T14:13:33;33.30;99.90
25825;DHT22;13658;44.534;18.694;2023-07-13T14:16:02;33.20;99.90
25825;DHT22;13658;44.534;18.694;2023-07-13T14:18:28;33.10;99.90
25825;DHT22;13658;44.534;18.694;2023-07-13T14:20:54;33.10;99.90
25825;DHT22;13658;44.534;18.694;2023-07-13T14:23:20;33.10;99.90
25825;DHT22;13658;44.534;18.694;2023-07-13T14:25:48;33.00;99.90
25825;DHT22;13658;44.534;18.694;2023-07-13T14:28:25;33.00;99.90
25825;DHT22;13658;44.534;18.694;2023-07-13T14:30:53;33.00;99.90
25825;DHT22;13658;44.534;18.694;2023-07-13T14:33:20;32.90;99.90
25825;DHT22;13658;44.534;18.694;2023-07-13T14:35:46;33.00;99.90
25825;DHT22;13658;44.534;18.694;2023-07-13T14:38:17;32.90;99.90
25825;DHT22;13658;44.534;18.694;2023-07-13T14:40:44;32.80;99.90
25825;DHT22;13658;44.534;18.694;2023-07-13T14:43:12;32.80;99.90
25825;DHT22;13658;44.534;18.694;2023-07-13T14:45:44;32.80;99.90
25825;DHT22;13658;44.534;18.694;2023-07-13T14:48:19;32.70;99.90
25825;DHT22;13658;44.534;18.694;2023-07-13T14:50:46;32.60;99.90
25825;DHT22;13658;44.534;18.694;2023-07-13T14:53:13;32.70;99.90
25825;DHT22;13658;44.534;18.694;2023-07-13T14:55:39;32.80;99.90
25825;DHT22;13658;44.534;18.694;2023-07-13T14:58:06;32.90;99.90
25825;DHT22;13658;44.534;18.694;2023-07-13T15:00:32;33.00;99.90
25825;DHT22;13658;44.534;18.694;2023-07-13T15:03:00;33.10;99.90
25825;DHT22;13658;44.534;18.694;2023-07-13T15:05:28;33.20;99.90
25825;DHT22;13658;44.534;18.694;2023-07-13T15:08:01;33.20;99.90
25825;DHT22;13658;44.534;18.694;2023-07-13T15:10:32;33.30;99.90
25825;DHT22;13658;44.534;18.694;2023-07-13T15:13:01;33.20;99.90
25825;DHT22;13658;44.534;18.694;2023-07-13T15:15:40;33.20;99.90
25825;DHT22;13658;44.534;18.694;2023-07-13T15:18:11;33.10;99.90
25825;DHT22;13658;44.534;18.694;2023-07-13T15:20:37;33.10;99.90
25825;DHT22;13658;44.534;18.694;2023-07-13T15:23:04;33.00;99.90
25825;DHT22;13658;44.534;18.694;2023-07-13T15:25:32;33.00;99.90
25825;DHT22;13658;44.534;18.694;2023-07-13T15:27:59;33.00;99.90
25825;DHT22;13658;44.534;18.694;2023-07-13T15:30:28;33.10;99.90
25825;DHT22;13658;44.534;18.694;2023-07-13T15:32:57;33.20;99.90
25825;DHT22;13658;44.534;18.694;2023-07-13T15:35:26;33.20;99.90
25825;DHT22;13658;44.534;18.694;2023-07-13T15:37:54;33.20;99.90
25825;DHT22;13658;44.534;18.694;2023-07-13T15:40:20;33.10;99.90
25825;DHT22;13658;44.534;18.694;2023-07-13T15:42:49;33.10;99.90
25825;DHT22;13658;44.534;18.694;2023-07-13T15:45:23;32.90;99.90
25825;DHT22;13658;44.534;18.694;2023-07-13T15:47:51;32.80;99.90
25825;DHT22;13658;44.534;18.694;2023-07-13T15:50:23;32.80;99.90
25825;DHT22;13658;44.534;18.694;2023-07-13T15:52:54;32.70;99.90
25825;DHT22;13658;44.534;18.694;2023-07-13T15:55:21;32.70;99.90
25825;DHT22;13658;44.534;18.694;2023-07-13T15:57:49;32.50;99.90
25825;DHT22;13658;44.534;18.694;2023-07-13T16:00:24;32.40;99.90
25825;DHT22;13658;44.534;18.694;2023-07-13T16:02:50;32.20;99.90
25825;DHT22;13658;44.534;18.694;2023-07-13T16:05:18;32.10;99.90